UABA weather

Burana Airport
Burana village, Chuy Region, Kyrgyzstan

Public forecast

Using degrees Celsius for public forecast. Weather courtesy of forecast.io.

METAR (pilot weather report)

Closest report is Manas International Airport, 41.9 nm (77.6 km) WNW. Retrieved 2019/03/26 03:30 UTC (10 minutes ago):

UCFM 260330Z 11006MPS CAVOK 14/M02 Q1019 R08/09//95 NOSIG

TAF (pilot weather forecast)

Forecast is more than 12 hours old.

Closest forecast is Manas International Airport, 41.9 nm (77.6 km) WNW. Retrieved 2019/03/25 00:00 UTC (1 day ago):

TAF UCFM 252243Z 2600/2624 12003G08MPS 3000 BR SCT050 TEMPO 2600/2606 08005G10MPS 1500 BR FU BECMG 2606/2607 32003G08MPS 9999 NSW TEMPO 2606/2612 06003G08MPS